sensor_id;sensor_type;location;lat;lon;timestamp;P1;durP1;ratioP1;P2;durP2;ratioP2
55756;SDS011;41676;44.610;44.078;2023-09-19T00:02:08;11.88;;;7.75;;
55756;SDS011;41676;44.610;44.078;2023-09-19T00:07:12;11.77;;;7.60;;
55756;SDS011;41676;44.610;44.078;2023-09-19T00:12:13;27.70;;;8.05;;
55756;SDS011;41676;44.610;44.078;2023-09-19T00:17:22;11.15;;;7.60;;
55756;SDS011;41676;44.610;44.078;2023-09-19T00:22:50;16.92;;;8.02;;
55756;SDS011;41676;44.610;44.078;2023-09-19T00:27:56;11.87;;;6.77;;
55756;SDS011;41676;44.610;44.078;2023-09-19T00:33:16;15.18;;;7.80;;
55756;SDS011;41676;44.610;44.078;2023-09-19T00:38:40;19.73;;;7.33;;
55756;SDS011;41676;44.610;44.078;2023-09-19T00:44:06;10.65;;;7.15;;
55756;SDS011;41676;44.610;44.078;2023-09-19T00:49:10;9.40;;;7.40;;
55756;SDS011;41676;44.610;44.078;2023-09-19T00:54:22;11.88;;;7.50;;
55756;SDS011;41676;44.610;44.078;2023-09-19T00:59:42;13.43;;;6.45;;
55756;SDS011;41676;44.610;44.078;2023-09-19T01:04:51;14.32;;;7.13;;
55756;SDS011;41676;44.610;44.078;2023-09-19T01:10:05;14.40;;;7.25;;
55756;SDS011;41676;44.610;44.078;2023-09-19T01:15:21;10.55;;;6.90;;
55756;SDS011;41676;44.610;44.078;2023-09-19T01:21:05;11.75;;;6.70;;
55756;SDS011;41676;44.610;44.078;2023-09-19T01:31:49;23.38;;;6.95;;
55756;SDS011;41676;44.610;44.078;2023-09-19T01:36:54;12.65;;;7.45;;
55756;SDS011;41676;44.610;44.078;2023-09-19T01:42:04;17.25;;;6.82;;
55756;SDS011;41676;44.610;44.078;2023-09-19T01:47:35;12.00;;;7.38;;
55756;SDS011;41676;44.610;44.078;2023-09-19T01:52:48;19.90;;;9.13;;
55756;SDS011;41676;44.610;44.078;2023-09-19T01:58:04;18.58;;;8.02;;
55756;SDS011;41676;44.610;44.078;2023-09-19T02:03:17;14.27;;;7.50;;
55756;SDS011;41676;44.610;44.078;2023-09-19T02:08:22;16.85;;;8.48;;
55756;SDS011;41676;44.610;44.078;2023-09-19T02:13:26;21.77;;;8.27;;
55756;SDS011;41676;44.610;44.078;2023-09-19T02:18:28;20.83;;;7.40;;
55756;SDS011;41676;44.610;44.078;2023-09-19T02:23:29;60.42;;;9.80;;
55756;SDS011;41676;44.610;44.078;2023-09-19T02:28:30;26.83;;;8.13;;
55756;SDS011;41676;44.610;44.078;2023-09-19T02:33:32;61.25;;;9.43;;
55756;SDS011;41676;44.610;44.078;2023-09-19T02:38:33;38.88;;;8.75;;
55756;SDS011;41676;44.610;44.078;2023-09-19T02:43:33;44.35;;;9.13;;
55756;SDS011;41676;44.610;44.078;2023-09-19T02:48:36;156.98;;;14.23;;
55756;SDS011;41676;44.610;44.078;2023-09-19T02:53:37;36.03;;;7.63;;
55756;SDS011;41676;44.610;44.078;2023-09-19T02:58:38;92.80;;;9.60;;
55756;SDS011;41676;44.610;44.078;2023-09-19T03:03:39;63.75;;;9.88;;
55756;SDS011;41676;44.610;44.078;2023-09-19T03:08:42;64.65;;;9.93;;
55756;SDS011;41676;44.610;44.078;2023-09-19T03:13:44;89.03;;;11.13;;
55756;SDS011;41676;44.610;44.078;2023-09-19T03:18:46;46.40;;;11.82;;
55756;SDS011;41676;44.610;44.078;2023-09-19T03:23:47;72.93;;;12.93;;
55756;SDS011;41676;44.610;44.078;2023-09-19T03:28:48;43.67;;;11.00;;
55756;SDS011;41676;44.610;44.078;2023-09-19T03:33:49;36.00;;;10.50;;
55756;SDS011;41676;44.610;44.078;2023-09-19T03:38:49;40.90;;;9.82;;
55756;SDS011;41676;44.610;44.078;2023-09-19T03:43:50;21.15;;;9.40;;
55756;SDS011;41676;44.610;44.078;2023-09-19T03:48:51;29.88;;;10.15;;
55756;SDS011;41676;44.610;44.078;2023-09-19T03:53:52;20.77;;;8.07;;
55756;SDS011;41676;44.610;44.078;2023-09-19T03:58:52;27.35;;;7.93;;
55756;SDS011;41676;44.610;44.078;2023-09-19T04:03:53;17.38;;;7.43;;
55756;SDS011;41676;44.610;44.078;2023-09-19T04:08:54;10.77;;;6.45;;
55756;SDS011;41676;44.610;44.078;2023-09-19T04:13:57;11.77;;;6.25;;
55756;SDS011;41676;44.610;44.078;2023-09-19T04:18:58;9.63;;;5.65;;
55756;SDS011;41676;44.610;44.078;2023-09-19T04:23:59;12.85;;;6.30;;
55756;SDS011;41676;44.610;44.078;2023-09-19T04:29:00;10.40;;;6.50;;
55756;SDS011;41676;44.610;44.078;2023-09-19T04:34:01;10.35;;;6.70;;
55756;SDS011;41676;44.610;44.078;2023-09-19T04:39:03;35.85;;;7.85;;
55756;SDS011;41676;44.610;44.078;2023-09-19T04:44:07;14.52;;;7.95;;
55756;SDS011;41676;44.610;44.078;2023-09-19T04:49:08;13.95;;;8.00;;
55756;SDS011;41676;44.610;44.078;2023-09-19T04:54:09;12.88;;;8.10;;
55756;SDS011;41676;44.610;44.078;2023-09-19T08:20:10;3.80;;;2.00;;
55756;SDS011;41676;44.610;44.078;2023-09-19T08:25:16;6.80;;;2.10;;
55756;SDS011;41676;44.610;44.078;2023-09-19T08:35:24;2.58;;;1.90;;
55756;SDS011;41676;44.610;44.078;2023-09-19T08:40:27;4.20;;;2.25;;
55756;SDS011;41676;44.610;44.078;2023-09-19T08:45:33;2.50;;;1.83;;
55756;SDS011;41676;44.610;44.078;2023-09-19T08:50:41;11.80;;;3.85;;
55756;SDS011;41676;44.610;44.078;2023-09-19T09:03:00;2.70;;;1.75;;
55756;SDS011;41676;44.610;44.078;2023-09-19T09:21:15;5.43;;;1.90;;
55756;SDS011;41676;44.610;44.078;2023-09-19T09:46:11;2.75;;;1.83;;
55756;SDS011;41676;44.610;44.078;2023-09-19T09:51:30;2.97;;;1.80;;
55756;SDS011;41676;44.610;44.078;2023-09-19T09:56:31;4.25;;;1.85;;
55756;SDS011;41676;44.610;44.078;2023-09-19T10:01:47;4.38;;;1.80;;
55756;SDS011;41676;44.610;44.078;2023-09-19T10:06:49;4.65;;;1.70;;
55756;SDS011;41676;44.610;44.078;2023-09-19T10:12:04;6.68;;;1.92;;
55756;SDS011;41676;44.610;44.078;2023-09-19T10:17:09;6.60;;;1.90;;
55756;SDS011;41676;44.610;44.078;2023-09-19T10:22:10;4.43;;;1.70;;
55756;SDS011;41676;44.610;44.078;2023-09-19T10:27:14;4.40;;;1.88;;
55756;SDS011;41676;44.610;44.078;2023-09-19T10:32:17;12.98;;;2.90;;
55756;SDS011;41676;44.610;44.078;2023-09-19T10:37:22;7.30;;;2.00;;
55756;SDS011;41676;44.610;44.078;2023-09-19T10:42:30;5.15;;;1.85;;
55756;SDS011;41676;44.610;44.078;2023-09-19T10:58:31;10.70;;;2.15;;
55756;SDS011;41676;44.610;44.078;2023-09-19T11:14:48;3.60;;;1.73;;
55756;SDS011;41676;44.610;44.078;2023-09-19T11:30:30;5.72;;;2.30;;
55756;SDS011;41676;44.610;44.078;2023-09-19T11:46:27;21.88;;;2.10;;
55756;SDS011;41676;44.610;44.078;2023-09-19T11:51:29;2.92;;;1.88;;
55756;SDS011;41676;44.610;44.078;2023-09-19T12:20:43;5.05;;;2.00;;
55756;SDS011;41676;44.610;44.078;2023-09-19T12:25:47;14.55;;;2.38;;
55756;SDS011;41676;44.610;44.078;2023-09-19T12:30:58;5.82;;;2.20;;
55756;SDS011;41676;44.610;44.078;2023-09-19T12:36:23;4.80;;;1.97;;
55756;SDS011;41676;44.610;44.078;2023-09-19T12:41:34;3.95;;;2.20;;
55756;SDS011;41676;44.610;44.078;2023-09-19T12:46:35;13.25;;;2.35;;
55756;SDS011;41676;44.610;44.078;2023-09-19T12:51:37;3.83;;;1.60;;
55756;SDS011;41676;44.610;44.078;2023-09-19T12:56:41;5.78;;;1.98;;
55756;SDS011;41676;44.610;44.078;2023-09-19T13:01:45;5.22;;;1.98;;
55756;SDS011;41676;44.610;44.078;2023-09-19T13:06:47;7.47;;;2.05;;
55756;SDS011;41676;44.610;44.078;2023-09-19T13:11:53;11.45;;;2.70;;
55756;SDS011;41676;44.610;44.078;2023-09-19T13:16:55;4.63;;;2.20;;
55756;SDS011;41676;44.610;44.078;2023-09-19T13:22:38;8.00;;;2.00;;
55756;SDS011;41676;44.610;44.078;2023-09-19T13:27:40;10.30;;;2.75;;
55756;SDS011;41676;44.610;44.078;2023-09-19T13:32:42;9.20;;;2.05;;
55756;SDS011;41676;44.610;44.078;2023-09-19T13:37:46;3.50;;;1.92;;
55756;SDS011;41676;44.610;44.078;2023-09-19T13:42:49;9.20;;;2.13;;
55756;SDS011;41676;44.610;44.078;2023-09-19T13:47:53;3.58;;;1.90;;
55756;SDS011;41676;44.610;44.078;2023-09-19T13:52:54;6.82;;;2.10;;
55756;SDS011;41676;44.610;44.078;2023-09-19T13:57:55;6.40;;;2.20;;
55756;SDS011;41676;44.610;44.078;2023-09-19T14:02:57;8.82;;;2.50;;
55756;SDS011;41676;44.610;44.078;2023-09-19T14:07:58;13.68;;;2.08;;
55756;SDS011;41676;44.610;44.078;2023-09-19T14:13:03;17.77;;;2.75;;
55756;SDS011;41676;44.610;44.078;2023-09-19T14:18:04;6.75;;;2.15;;
55756;SDS011;41676;44.610;44.078;2023-09-19T14:23:05;37.03;;;3.63;;
55756;SDS011;41676;44.610;44.078;2023-09-19T14:28:06;10.15;;;2.45;;
55756;SDS011;41676;44.610;44.078;2023-09-19T14:38:11;6.03;;;1.95;;
55756;SDS011;41676;44.610;44.078;2023-09-19T14:43:11;10.40;;;2.17;;
55756;SDS011;41676;44.610;44.078;2023-09-19T14:48:12;20.98;;;2.58;;
55756;SDS011;41676;44.610;44.078;2023-09-19T14:53:13;13.23;;;2.67;;
55756;SDS011;41676;44.610;44.078;2023-09-19T14:58:14;24.65;;;3.30;;
55756;SDS011;41676;44.610;44.078;2023-09-19T15:03:14;12.10;;;2.60;;
55756;SDS011;41676;44.610;44.078;2023-09-19T15:08:15;7.57;;;2.47;;
55756;SDS011;41676;44.610;44.078;2023-09-19T15:13:16;11.45;;;2.50;;
55756;SDS011;41676;44.610;44.078;2023-09-19T15:18:17;12.55;;;2.40;;
55756;SDS011;41676;44.610;44.078;2023-09-19T15:23:17;16.25;;;2.63;;
55756;SDS011;41676;44.610;44.078;2023-09-19T15:28:19;14.38;;;2.95;;
55756;SDS011;41676;44.610;44.078;2023-09-19T15:33:24;9.25;;;2.50;;
55756;SDS011;41676;44.610;44.078;2023-09-19T15:38:24;5.00;;;2.50;;
55756;SDS011;41676;44.610;44.078;2023-09-19T15:48:31;13.95;;;2.75;;
55756;SDS011;41676;44.610;44.078;2023-09-19T15:53:41;9.88;;;2.60;;
55756;SDS011;41676;44.610;44.078;2023-09-19T15:58:44;6.93;;;2.33;;
55756;SDS011;41676;44.610;44.078;2023-09-19T16:03:47;10.43;;;2.70;;
55756;SDS011;41676;44.610;44.078;2023-09-19T16:08:49;19.83;;;2.50;;
55756;SDS011;41676;44.610;44.078;2023-09-19T16:13:53;16.95;;;2.28;;
55756;SDS011;41676;44.610;44.078;2023-09-19T16:19:02;16.45;;;2.40;;
55756;SDS011;41676;44.610;44.078;2023-09-19T16:24:06;10.50;;;2.30;;
55756;SDS011;41676;44.610;44.078;2023-09-19T16:29:10;21.95;;;2.88;;
55756;SDS011;41676;44.610;44.078;2023-09-19T16:34:12;10.05;;;2.42;;
55756;SDS011;41676;44.610;44.078;2023-09-19T16:39:14;13.38;;;2.90;;
55756;SDS011;41676;44.610;44.078;2023-09-19T16:44:15;6.47;;;2.30;;
55756;SDS011;41676;44.610;44.078;2023-09-19T16:49:17;12.07;;;2.35;;
55756;SDS011;41676;44.610;44.078;2023-09-19T16:54:19;4.80;;;1.80;;
55756;SDS011;41676;44.610;44.078;2023-09-19T16:59:20;6.57;;;2.47;;
55756;SDS011;41676;44.610;44.078;2023-09-19T17:04:23;5.93;;;1.95;;
55756;SDS011;41676;44.610;44.078;2023-09-19T17:09:24;8.32;;;2.10;;
55756;SDS011;41676;44.610;44.078;2023-09-19T17:14:26;10.75;;;2.30;;
55756;SDS011;41676;44.610;44.078;2023-09-19T17:19:28;15.68;;;2.50;;
55756;SDS011;41676;44.610;44.078;2023-09-19T17:24:30;14.80;;;2.67;;
55756;SDS011;41676;44.610;44.078;2023-09-19T17:29:31;31.00;;;3.10;;
55756;SDS011;41676;44.610;44.078;2023-09-19T17:34:33;5.80;;;2.42;;
55756;SDS011;41676;44.610;44.078;2023-09-19T17:39:34;6.32;;;2.20;;
55756;SDS011;41676;44.610;44.078;2023-09-19T17:44:35;6.68;;;2.35;;
55756;SDS011;41676;44.610;44.078;2023-09-19T17:49:36;3.85;;;2.08;;
55756;SDS011;41676;44.610;44.078;2023-09-19T17:54:37;4.35;;;1.90;;
55756;SDS011;41676;44.610;44.078;2023-09-19T17:59:37;9.45;;;2.25;;
55756;SDS011;41676;44.610;44.078;2023-09-19T18:04:39;10.00;;;2.70;;
55756;SDS011;41676;44.610;44.078;2023-09-19T18:09:40;10.23;;;2.30;;
55756;SDS011;41676;44.610;44.078;2023-09-19T18:14:41;7.68;;;2.40;;
55756;SDS011;41676;44.610;44.078;2023-09-19T18:19:42;13.50;;;2.90;;
55756;SDS011;41676;44.610;44.078;2023-09-19T18:24:43;23.92;;;3.30;;
55756;SDS011;41676;44.610;44.078;2023-09-19T18:29:44;6.85;;;2.65;;
55756;SDS011;41676;44.610;44.078;2023-09-19T18:34:46;11.43;;;2.55;;
55756;SDS011;41676;44.610;44.078;2023-09-19T18:39:47;4.72;;;2.40;;
55756;SDS011;41676;44.610;44.078;2023-09-19T18:44:48;6.75;;;2.67;;
55756;SDS011;41676;44.610;44.078;2023-09-19T18:49:49;5.82;;;2.90;;
55756;SDS011;41676;44.610;44.078;2023-09-19T18:54:50;6.38;;;2.42;;
55756;SDS011;41676;44.610;44.078;2023-09-19T18:59:51;6.65;;;2.50;;
55756;SDS011;41676;44.610;44.078;2023-09-19T19:04:52;6.75;;;2.58;;
55756;SDS011;41676;44.610;44.078;2023-09-19T19:09:52;5.43;;;2.53;;
55756;SDS011;41676;44.610;44.078;2023-09-19T19:14:53;4.75;;;2.42;;
55756;SDS011;41676;44.610;44.078;2023-09-19T19:19:54;4.65;;;2.78;;
55756;SDS011;41676;44.610;44.078;2023-09-19T19:24:55;5.75;;;2.53;;
55756;SDS011;41676;44.610;44.078;2023-09-19T19:29:56;6.32;;;3.10;;
55756;SDS011;41676;44.610;44.078;2023-09-19T19:34:57;5.07;;;2.75;;
55756;SDS011;41676;44.610;44.078;2023-09-19T19:39:58;7.38;;;2.83;;
55756;SDS011;41676;44.610;44.078;2023-09-19T19:44:59;4.60;;;2.80;;
55756;SDS011;41676;44.610;44.078;2023-09-19T19:50:00;8.38;;;3.20;;
55756;SDS011;41676;44.610;44.078;2023-09-19T19:55:01;8.30;;;3.08;;
55756;SDS011;41676;44.610;44.078;2023-09-19T20:00:02;6.70;;;2.80;;
55756;SDS011;41676;44.610;44.078;2023-09-19T20:05:07;10.85;;;2.88;;
55756;SDS011;41676;44.610;44.078;2023-09-19T20:10:11;10.93;;;2.90;;
55756;SDS011;41676;44.610;44.078;2023-09-19T20:15:20;9.25;;;3.65;;
55756;SDS011;41676;44.610;44.078;2023-09-19T20:20:21;7.97;;;3.30;;
55756;SDS011;41676;44.610;44.078;2023-09-19T20:25:22;28.08;;;3.67;;
55756;SDS011;41676;44.610;44.078;2023-09-19T20:30:24;5.03;;;3.25;;
55756;SDS011;41676;44.610;44.078;2023-09-19T20:35:24;6.05;;;3.13;;
55756;SDS011;41676;44.610;44.078;2023-09-19T20:40:25;4.18;;;3.00;;
55756;SDS011;41676;44.610;44.078;2023-09-19T20:45:26;7.65;;;3.10;;
55756;SDS011;41676;44.610;44.078;2023-09-19T20:50:27;4.45;;;3.20;;
55756;SDS011;41676;44.610;44.078;2023-09-19T20:55:28;9.75;;;3.75;;
55756;SDS011;41676;44.610;44.078;2023-09-19T21:00:29;8.35;;;3.03;;
55756;SDS011;41676;44.610;44.078;2023-09-19T21:05:30;8.38;;;3.20;;
55756;SDS011;41676;44.610;44.078;2023-09-19T21:10:31;10.90;;;3.67;;
55756;SDS011;41676;44.610;44.078;2023-09-19T21:15:32;6.53;;;3.50;;
55756;SDS011;41676;44.610;44.078;2023-09-19T21:20:32;14.57;;;3.80;;
55756;SDS011;41676;44.610;44.078;2023-09-19T21:25:34;7.13;;;3.80;;
55756;SDS011;41676;44.610;44.078;2023-09-19T21:30:35;7.95;;;4.10;;
55756;SDS011;41676;44.610;44.078;2023-09-19T21:35:43;7.18;;;4.07;;
55756;SDS011;41676;44.610;44.078;2023-09-19T21:40:45;9.45;;;4.15;;
55756;SDS011;41676;44.610;44.078;2023-09-19T21:45:46;8.57;;;3.65;;
55756;SDS011;41676;44.610;44.078;2023-09-19T21:50:53;8.05;;;3.88;;
55756;SDS011;41676;44.610;44.078;2023-09-19T21:55:59;8.00;;;3.78;;
55756;SDS011;41676;44.610;44.078;2023-09-19T22:01:01;7.82;;;3.92;;
55756;SDS011;41676;44.610;44.078;2023-09-19T22:06:09;7.20;;;3.65;;
55756;SDS011;41676;44.610;44.078;2023-09-19T22:11:10;16.80;;;4.20;;
55756;SDS011;41676;44.610;44.078;2023-09-19T22:16:13;9.20;;;4.32;;
55756;SDS011;41676;44.610;44.078;2023-09-19T22:21:16;28.23;;;5.90;;
55756;SDS011;41676;44.610;44.078;2023-09-19T22:26:34;60.30;;;6.28;;
55756;SDS011;41676;44.610;44.078;2023-09-19T22:31:38;22.42;;;5.18;;
55756;SDS011;41676;44.610;44.078;2023-09-19T22:36:42;8.75;;;4.30;;
55756;SDS011;41676;44.610;44.078;2023-09-19T22:41:43;9.50;;;4.90;;
55756;SDS011;41676;44.610;44.078;2023-09-19T22:46:45;12.27;;;5.03;;
55756;SDS011;41676;44.610;44.078;2023-09-19T22:51:48;7.22;;;4.82;;
55756;SDS011;41676;44.610;44.078;2023-09-19T22:56:52;9.67;;;4.50;;
55756;SDS011;41676;44.610;44.078;2023-09-19T23:01:53;5.60;;;4.63;;
55756;SDS011;41676;44.610;44.078;2023-09-19T23:06:57;10.57;;;5.30;;
55756;SDS011;41676;44.610;44.078;2023-09-19T23:12:05;9.85;;;4.93;;
55756;SDS011;41676;44.610;44.078;2023-09-19T23:17:07;7.35;;;5.15;;
55756;SDS011;41676;44.610;44.078;2023-09-19T23:22:14;9.15;;;5.05;;
55756;SDS011;41676;44.610;44.078;2023-09-19T23:27:18;33.55;;;5.35;;
55756;SDS011;41676;44.610;44.078;2023-09-19T23:32:24;6.50;;;5.25;;
55756;SDS011;41676;44.610;44.078;2023-09-19T23:37:25;10.27;;;5.35;;
55756;SDS011;41676;44.610;44.078;2023-09-19T23:42:26;13.68;;;5.28;;
55756;SDS011;41676;44.610;44.078;2023-09-19T23:47:28;7.68;;;5.43;;
55756;SDS011;41676;44.610;44.078;2023-09-19T23:52:29;12.32;;;5.18;;
55756;SDS011;41676;44.610;44.078;2023-09-19T23:57:30;26.52;;;6.10;;
